sensor_id;sensor_type;location;lat;lon;timestamp;P1;durP1;ratioP1;P2;durP2;ratioP2
16543;SDS011;8384;47.996;7.786;2023-05-10T00:01:20;3.17;;;0.90;;
16543;SDS011;8384;47.996;7.786;2023-05-10T00:03:45;0.85;;;0.70;;
16543;SDS011;8384;47.996;7.786;2023-05-10T00:06:11;0.82;;;0.80;;
16543;SDS011;8384;47.996;7.786;2023-05-10T00:08:37;0.93;;;0.80;;
16543;SDS011;8384;47.996;7.786;2023-05-10T00:11:02;1.50;;;0.80;;
16543;SDS011;8384;47.996;7.786;2023-05-10T00:13:27;1.70;;;0.97;;
16543;SDS011;8384;47.996;7.786;2023-05-10T00:15:52;3.23;;;1.03;;
16543;SDS011;8384;47.996;7.786;2023-05-10T00:18:18;3.37;;;1.10;;
16543;SDS011;8384;47.996;7.786;2023-05-10T00:20:43;1.83;;;0.95;;
16543;SDS011;8384;47.996;7.786;2023-05-10T00:23:10;0.75;;;0.75;;
16543;SDS011;8384;47.996;7.786;2023-05-10T00:25:36;1.10;;;1.00;;
16543;SDS011;8384;47.996;7.786;2023-05-10T00:28:01;1.67;;;0.80;;
16543;SDS011;8384;47.996;7.786;2023-05-10T00:30:27;2.80;;;0.82;;
16543;SDS011;8384;47.996;7.786;2023-05-10T00:32:52;0.98;;;0.70;;
16543;SDS011;8384;47.996;7.786;2023-05-10T00:35:17;1.30;;;0.90;;
16543;SDS011;8384;47.996;7.786;2023-05-10T00:37:43;2.17;;;0.90;;
16543;SDS011;8384;47.996;7.786;2023-05-10T00:40:08;1.00;;;0.90;;
16543;SDS011;8384;47.996;7.786;2023-05-10T00:42:33;2.00;;;1.00;;
16543;SDS011;8384;47.996;7.786;2023-05-10T00:44:59;1.93;;;1.00;;
16543;SDS011;8384;47.996;7.786;2023-05-10T00:47:24;3.17;;;1.00;;
16543;SDS011;8384;47.996;7.786;2023-05-10T00:49:49;1.10;;;1.00;;
16543;SDS011;8384;47.996;7.786;2023-05-10T00:52:15;1.70;;;0.90;;
16543;SDS011;8384;47.996;7.786;2023-05-10T00:54:40;1.10;;;1.00;;
16543;SDS011;8384;47.996;7.786;2023-05-10T00:57:06;2.20;;;0.90;;
16543;SDS011;8384;47.996;7.786;2023-05-10T00:59:31;1.40;;;0.80;;
16543;SDS011;8384;47.996;7.786;2023-05-10T01:01:57;2.00;;;0.90;;
16543;SDS011;8384;47.996;7.786;2023-05-10T01:04:23;1.73;;;1.00;;
16543;SDS011;8384;47.996;7.786;2023-05-10T01:06:50;2.20;;;1.10;;
16543;SDS011;8384;47.996;7.786;2023-05-10T01:09:16;1.52;;;1.00;;
16543;SDS011;8384;47.996;7.786;2023-05-10T01:11:42;1.30;;;1.07;;
16543;SDS011;8384;47.996;7.786;2023-05-10T01:14:08;2.13;;;1.00;;
16543;SDS011;8384;47.996;7.786;2023-05-10T01:16:35;1.10;;;1.00;;
16543;SDS011;8384;47.996;7.786;2023-05-10T01:19:03;1.60;;;0.90;;
16543;SDS011;8384;47.996;7.786;2023-05-10T01:21:38;1.38;;;1.00;;
16543;SDS011;8384;47.996;7.786;2023-05-10T01:24:22;2.58;;;1.02;;
16543;SDS011;8384;47.996;7.786;2023-05-10T01:27:10;2.05;;;1.00;;
16543;SDS011;8384;47.996;7.786;2023-05-10T01:38:29;1.63;;;1.20;;
16543;SDS011;8384;47.996;7.786;2023-05-10T01:41:14;1.50;;;1.20;;
16543;SDS011;8384;47.996;7.786;2023-05-10T01:44:05;1.60;;;1.17;;
16543;SDS011;8384;47.996;7.786;2023-05-10T01:46:43;1.50;;;1.10;;
16543;SDS011;8384;47.996;7.786;2023-05-10T01:49:26;2.50;;;1.20;;
16543;SDS011;8384;47.996;7.786;2023-05-10T01:51:59;1.20;;;1.10;;
16543;SDS011;8384;47.996;7.786;2023-05-10T01:54:28;1.42;;;1.08;;
16543;SDS011;8384;47.996;7.786;2023-05-10T01:56:57;2.40;;;1.10;;
16543;SDS011;8384;47.996;7.786;2023-05-10T01:59:29;2.20;;;1.10;;
16543;SDS011;8384;47.996;7.786;2023-05-10T02:02:01;1.60;;;1.20;;
16543;SDS011;8384;47.996;7.786;2023-05-10T02:04:27;1.20;;;1.10;;
16543;SDS011;8384;47.996;7.786;2023-05-10T02:06:53;1.53;;;1.30;;
16543;SDS011;8384;47.996;7.786;2023-05-10T02:09:20;1.40;;;1.30;;
16543;SDS011;8384;47.996;7.786;2023-05-10T02:11:46;1.40;;;1.30;;
16543;SDS011;8384;47.996;7.786;2023-05-10T02:14:13;2.55;;;1.20;;
16543;SDS011;8384;47.996;7.786;2023-05-10T02:16:41;1.60;;;1.25;;
16543;SDS011;8384;47.996;7.786;2023-05-10T02:19:08;2.60;;;1.35;;
16543;SDS011;8384;47.996;7.786;2023-05-10T02:21:35;2.30;;;1.17;;
16543;SDS011;8384;47.996;7.786;2023-05-10T02:24:02;2.10;;;1.10;;
16543;SDS011;8384;47.996;7.786;2023-05-10T02:26:29;1.95;;;1.33;;
16543;SDS011;8384;47.996;7.786;2023-05-10T02:28:56;1.67;;;1.30;;
16543;SDS011;8384;47.996;7.786;2023-05-10T02:31:23;1.70;;;1.40;;
16543;SDS011;8384;47.996;7.786;2023-05-10T02:33:49;1.40;;;1.30;;
16543;SDS011;8384;47.996;7.786;2023-05-10T02:36:16;1.85;;;1.40;;
16543;SDS011;8384;47.996;7.786;2023-05-10T02:38:43;2.70;;;1.33;;
16543;SDS011;8384;47.996;7.786;2023-05-10T02:41:10;1.50;;;1.30;;
16543;SDS011;8384;47.996;7.786;2023-05-10T02:43:36;3.03;;;1.23;;
16543;SDS011;8384;47.996;7.786;2023-05-10T02:46:02;2.50;;;1.30;;
16543;SDS011;8384;47.996;7.786;2023-05-10T02:48:28;2.10;;;1.30;;
16543;SDS011;8384;47.996;7.786;2023-05-10T02:50:54;1.45;;;1.20;;
16543;SDS011;8384;47.996;7.786;2023-05-10T02:53:30;1.70;;;1.40;;
16543;SDS011;8384;47.996;7.786;2023-05-10T02:55:57;1.90;;;1.25;;
16543;SDS011;8384;47.996;7.786;2023-05-10T02:58:25;1.42;;;1.33;;
16543;SDS011;8384;47.996;7.786;2023-05-10T03:00:51;3.15;;;1.40;;
16543;SDS011;8384;47.996;7.786;2023-05-10T03:03:16;2.17;;;1.50;;
16543;SDS011;8384;47.996;7.786;2023-05-10T03:05:42;1.33;;;1.20;;
16543;SDS011;8384;47.996;7.786;2023-05-10T03:08:07;2.57;;;1.50;;
16543;SDS011;8384;47.996;7.786;2023-05-10T03:10:33;1.90;;;1.40;;
16543;SDS011;8384;47.996;7.786;2023-05-10T03:13:08;2.33;;;1.30;;
16543;SDS011;8384;47.996;7.786;2023-05-10T03:18:23;1.90;;;1.70;;
16543;SDS011;8384;47.996;7.786;2023-05-10T03:21:02;1.80;;;1.60;;
16543;SDS011;8384;47.996;7.786;2023-05-10T03:23:50;1.95;;;1.60;;
16543;SDS011;8384;47.996;7.786;2023-05-10T03:26:23;1.77;;;1.60;;
16543;SDS011;8384;47.996;7.786;2023-05-10T03:28:51;1.70;;;1.60;;
16543;SDS011;8384;47.996;7.786;2023-05-10T03:31:17;1.70;;;1.60;;
16543;SDS011;8384;47.996;7.786;2023-05-10T03:33:46;2.40;;;1.60;;
16543;SDS011;8384;47.996;7.786;2023-05-10T03:36:15;2.53;;;1.80;;
16543;SDS011;8384;47.996;7.786;2023-05-10T03:38:41;2.00;;;1.80;;
16543;SDS011;8384;47.996;7.786;2023-05-10T03:41:06;2.35;;;1.60;;
16543;SDS011;8384;47.996;7.786;2023-05-10T03:43:32;1.90;;;1.80;;
16543;SDS011;8384;47.996;7.786;2023-05-10T03:45:57;2.10;;;1.67;;
16543;SDS011;8384;47.996;7.786;2023-05-10T03:48:22;1.87;;;1.70;;
16543;SDS011;8384;47.996;7.786;2023-05-10T03:50:47;1.60;;;1.50;;
16543;SDS011;8384;47.996;7.786;2023-05-10T03:53:14;1.75;;;1.65;;
16543;SDS011;8384;47.996;7.786;2023-05-10T03:55:40;1.77;;;1.60;;
16543;SDS011;8384;47.996;7.786;2023-05-10T03:58:05;1.80;;;1.40;;
16543;SDS011;8384;47.996;7.786;2023-05-10T04:00:30;2.37;;;1.40;;
16543;SDS011;8384;47.996;7.786;2023-05-10T04:02:56;1.55;;;1.45;;
16543;SDS011;8384;47.996;7.786;2023-05-10T04:05:21;2.10;;;1.50;;
16543;SDS011;8384;47.996;7.786;2023-05-10T04:07:47;1.57;;;1.40;;
16543;SDS011;8384;47.996;7.786;2023-05-10T04:10:14;2.30;;;1.50;;
16543;SDS011;8384;47.996;7.786;2023-05-10T04:12:41;1.65;;;1.33;;
16543;SDS011;8384;47.996;7.786;2023-05-10T04:15:06;2.00;;;1.40;;
16543;SDS011;8384;47.996;7.786;2023-05-10T04:17:32;1.45;;;1.20;;
16543;SDS011;8384;47.996;7.786;2023-05-10T04:19:57;1.87;;;1.30;;
16543;SDS011;8384;47.996;7.786;2023-05-10T04:22:22;2.00;;;1.30;;
16543;SDS011;8384;47.996;7.786;2023-05-10T04:24:48;1.63;;;1.30;;
16543;SDS011;8384;47.996;7.786;2023-05-10T04:27:13;1.80;;;1.30;;
16543;SDS011;8384;47.996;7.786;2023-05-10T04:29:39;2.30;;;1.43;;
16543;SDS011;8384;47.996;7.786;2023-05-10T04:32:04;2.13;;;1.30;;
16543;SDS011;8384;47.996;7.786;2023-05-10T04:34:29;2.37;;;1.40;;
16543;SDS011;8384;47.996;7.786;2023-05-10T04:36:55;3.07;;;1.30;;
16543;SDS011;8384;47.996;7.786;2023-05-10T04:39:20;2.40;;;1.70;;
16543;SDS011;8384;47.996;7.786;2023-05-10T04:41:45;2.70;;;1.60;;
16543;SDS011;8384;47.996;7.786;2023-05-10T04:44:10;1.70;;;1.50;;
16543;SDS011;8384;47.996;7.786;2023-05-10T04:46:36;2.10;;;1.90;;
16543;SDS011;8384;47.996;7.786;2023-05-10T04:49:01;1.63;;;1.50;;
16543;SDS011;8384;47.996;7.786;2023-05-10T04:51:26;1.90;;;1.70;;
16543;SDS011;8384;47.996;7.786;2023-05-10T04:53:52;2.30;;;1.73;;
16543;SDS011;8384;47.996;7.786;2023-05-10T04:56:17;2.00;;;1.80;;
16543;SDS011;8384;47.996;7.786;2023-05-10T04:58:42;2.40;;;1.90;;
16543;SDS011;8384;47.996;7.786;2023-05-10T05:01:08;2.03;;;1.77;;
16543;SDS011;8384;47.996;7.786;2023-05-10T05:03:35;2.20;;;1.77;;
16543;SDS011;8384;47.996;7.786;2023-05-10T05:06:01;2.55;;;1.90;;
16543;SDS011;8384;47.996;7.786;2023-05-10T05:08:27;2.63;;;1.60;;
16543;SDS011;8384;47.996;7.786;2023-05-10T05:10:52;3.47;;;1.90;;
16543;SDS011;8384;47.996;7.786;2023-05-10T05:13:17;2.50;;;1.90;;
16543;SDS011;8384;47.996;7.786;2023-05-10T05:15:43;2.73;;;2.00;;
16543;SDS011;8384;47.996;7.786;2023-05-10T05:18:08;2.97;;;1.80;;
16543;SDS011;8384;47.996;7.786;2023-05-10T05:20:34;2.03;;;1.90;;
16543;SDS011;8384;47.996;7.786;2023-05-10T05:22:59;2.50;;;1.80;;
16543;SDS011;8384;47.996;7.786;2023-05-10T05:25:25;2.00;;;1.80;;
16543;SDS011;8384;47.996;7.786;2023-05-10T05:27:50;2.80;;;1.80;;
16543;SDS011;8384;47.996;7.786;2023-05-10T05:30:15;2.73;;;1.90;;
16543;SDS011;8384;47.996;7.786;2023-05-10T05:32:41;2.40;;;1.80;;
16543;SDS011;8384;47.996;7.786;2023-05-10T05:35:06;2.10;;;1.70;;
16543;SDS011;8384;47.996;7.786;2023-05-10T05:37:32;1.75;;;1.65;;
16543;SDS011;8384;47.996;7.786;2023-05-10T05:39:57;2.70;;;1.60;;
16543;SDS011;8384;47.996;7.786;2023-05-10T05:42:22;3.63;;;1.90;;
16543;SDS011;8384;47.996;7.786;2023-05-10T05:44:48;2.88;;;1.73;;
16543;SDS011;8384;47.996;7.786;2023-05-10T05:47:13;2.50;;;1.67;;
16543;SDS011;8384;47.996;7.786;2023-05-10T05:49:38;2.13;;;1.73;;
16543;SDS011;8384;47.996;7.786;2023-05-10T05:52:04;2.42;;;1.98;;
16543;SDS011;8384;47.996;7.786;2023-05-10T05:54:30;1.90;;;1.67;;
16543;SDS011;8384;47.996;7.786;2023-05-10T05:56:56;1.83;;;1.50;;
16543;SDS011;8384;47.996;7.786;2023-05-10T05:59:22;1.70;;;1.60;;
16543;SDS011;8384;47.996;7.786;2023-05-10T06:01:48;1.60;;;1.50;;
16543;SDS011;8384;47.996;7.786;2023-05-10T06:04:14;2.47;;;1.40;;
16543;SDS011;8384;47.996;7.786;2023-05-10T06:06:39;1.87;;;1.67;;
16543;SDS011;8384;47.996;7.786;2023-05-10T06:09:04;1.60;;;1.50;;
16543;SDS011;8384;47.996;7.786;2023-05-10T06:11:30;1.50;;;1.40;;
16543;SDS011;8384;47.996;7.786;2023-05-10T06:13:57;1.65;;;1.40;;
16543;SDS011;8384;47.996;7.786;2023-05-10T06:16:22;2.35;;;1.65;;
16543;SDS011;8384;47.996;7.786;2023-05-10T06:18:48;1.90;;;1.53;;
16543;SDS011;8384;47.996;7.786;2023-05-10T06:21:13;1.90;;;1.40;;
16543;SDS011;8384;47.996;7.786;2023-05-10T06:23:39;2.40;;;1.38;;
16543;SDS011;8384;47.996;7.786;2023-05-10T06:26:05;2.25;;;1.33;;
16543;SDS011;8384;47.996;7.786;2023-05-10T06:28:30;2.67;;;1.50;;
16543;SDS011;8384;47.996;7.786;2023-05-10T06:30:57;1.50;;;1.40;;
16543;SDS011;8384;47.996;7.786;2023-05-10T06:33:22;3.05;;;1.80;;
16543;SDS011;8384;47.996;7.786;2023-05-10T06:35:47;2.22;;;1.63;;
16543;SDS011;8384;47.996;7.786;2023-05-10T06:38:13;3.08;;;1.70;;
16543;SDS011;8384;47.996;7.786;2023-05-10T06:40:41;3.23;;;1.87;;
16543;SDS011;8384;47.996;7.786;2023-05-10T06:43:07;3.25;;;1.77;;
16543;SDS011;8384;47.996;7.786;2023-05-10T06:45:32;3.90;;;1.90;;
16543;SDS011;8384;47.996;7.786;2023-05-10T06:47:57;3.17;;;2.10;;
16543;SDS011;8384;47.996;7.786;2023-05-10T06:50:22;3.23;;;1.80;;
16543;SDS011;8384;47.996;7.786;2023-05-10T06:52:48;3.43;;;2.00;;
16543;SDS011;8384;47.996;7.786;2023-05-10T06:55:13;3.40;;;1.80;;
16543;SDS011;8384;47.996;7.786;2023-05-10T06:57:38;4.17;;;1.90;;
16543;SDS011;8384;47.996;7.786;2023-05-10T07:00:04;2.60;;;2.03;;
16543;SDS011;8384;47.996;7.786;2023-05-10T07:02:30;2.95;;;1.92;;
16543;SDS011;8384;47.996;7.786;2023-05-10T07:04:55;3.00;;;1.90;;
16543;SDS011;8384;47.996;7.786;2023-05-10T07:07:21;3.17;;;1.77;;
16543;SDS011;8384;47.996;7.786;2023-05-10T07:09:46;3.22;;;1.70;;
16543;SDS011;8384;47.996;7.786;2023-05-10T07:12:12;2.63;;;1.77;;
16543;SDS011;8384;47.996;7.786;2023-05-10T07:14:37;4.57;;;2.00;;
16543;SDS011;8384;47.996;7.786;2023-05-10T07:17:03;2.43;;;1.80;;
16543;SDS011;8384;47.996;7.786;2023-05-10T07:19:28;3.25;;;1.90;;
16543;SDS011;8384;47.996;7.786;2023-05-10T07:21:54;3.45;;;1.63;;
16543;SDS011;8384;47.996;7.786;2023-05-10T07:24:20;2.43;;;1.73;;
16543;SDS011;8384;47.996;7.786;2023-05-10T07:26:45;2.20;;;1.70;;
16543;SDS011;8384;47.996;7.786;2023-05-10T07:29:11;3.00;;;1.80;;
16543;SDS011;8384;47.996;7.786;2023-05-10T07:31:36;4.10;;;1.98;;
16543;SDS011;8384;47.996;7.786;2023-05-10T07:34:02;3.20;;;1.80;;
16543;SDS011;8384;47.996;7.786;2023-05-10T07:36:27;2.27;;;1.70;;
16543;SDS011;8384;47.996;7.786;2023-05-10T07:38:52;3.72;;;1.80;;
16543;SDS011;8384;47.996;7.786;2023-05-10T07:41:18;3.23;;;1.60;;
16543;SDS011;8384;47.996;7.786;2023-05-10T07:43:43;3.80;;;1.60;;
16543;SDS011;8384;47.996;7.786;2023-05-10T07:46:08;2.93;;;1.80;;
16543;SDS011;8384;47.996;7.786;2023-05-10T07:48:36;3.00;;;1.60;;
16543;SDS011;8384;47.996;7.786;2023-05-10T07:51:02;2.08;;;1.20;;
16543;SDS011;8384;47.996;7.786;2023-05-10T07:53:27;3.30;;;1.60;;
16543;SDS011;8384;47.996;7.786;2023-05-10T07:55:58;2.73;;;1.60;;
16543;SDS011;8384;47.996;7.786;2023-05-10T07:58:24;4.20;;;1.70;;
16543;SDS011;8384;47.996;7.786;2023-05-10T08:00:49;2.80;;;1.50;;
16543;SDS011;8384;47.996;7.786;2023-05-10T08:03:15;2.55;;;1.50;;
16543;SDS011;8384;47.996;7.786;2023-05-10T08:05:40;3.00;;;1.50;;
16543;SDS011;8384;47.996;7.786;2023-05-10T08:08:06;2.60;;;1.33;;
16543;SDS011;8384;47.996;7.786;2023-05-10T08:10:31;2.37;;;1.40;;
16543;SDS011;8384;47.996;7.786;2023-05-10T08:12:56;2.13;;;1.30;;
16543;SDS011;8384;47.996;7.786;2023-05-10T08:15:23;2.35;;;1.30;;
16543;SDS011;8384;47.996;7.786;2023-05-10T08:17:49;3.30;;;1.30;;
16543;SDS011;8384;47.996;7.786;2023-05-10T08:20:15;3.83;;;1.37;;
16543;SDS011;8384;47.996;7.786;2023-05-10T08:22:43;3.88;;;1.38;;
16543;SDS011;8384;47.996;7.786;2023-05-10T08:25:10;2.28;;;1.10;;
16543;SDS011;8384;47.996;7.786;2023-05-10T08:27:35;1.70;;;1.27;;
16543;SDS011;8384;47.996;7.786;2023-05-10T08:30:00;2.53;;;1.40;;
16543;SDS011;8384;47.996;7.786;2023-05-10T08:32:26;2.27;;;1.30;;
16543;SDS011;8384;47.996;7.786;2023-05-10T08:34:51;2.73;;;1.30;;
16543;SDS011;8384;47.996;7.786;2023-05-10T08:37:16;2.70;;;1.30;;
16543;SDS011;8384;47.996;7.786;2023-05-10T08:39:41;2.77;;;1.33;;
16543;SDS011;8384;47.996;7.786;2023-05-10T08:42:07;2.23;;;1.20;;
16543;SDS011;8384;47.996;7.786;2023-05-10T08:44:34;2.72;;;1.30;;
16543;SDS011;8384;47.996;7.786;2023-05-10T08:47:06;3.92;;;1.30;;
16543;SDS011;8384;47.996;7.786;2023-05-10T08:49:32;2.88;;;1.13;;
16543;SDS011;8384;47.996;7.786;2023-05-10T08:51:59;2.60;;;1.20;;
16543;SDS011;8384;47.996;7.786;2023-05-10T08:54:28;2.25;;;1.20;;
16543;SDS011;8384;47.996;7.786;2023-05-10T08:56:54;3.60;;;1.35;;
16543;SDS011;8384;47.996;7.786;2023-05-10T08:59:20;3.22;;;1.30;;
16543;SDS011;8384;47.996;7.786;2023-05-10T09:01:46;2.40;;;1.20;;
16543;SDS011;8384;47.996;7.786;2023-05-10T09:04:14;3.58;;;1.30;;
16543;SDS011;8384;47.996;7.786;2023-05-10T09:06:39;4.03;;;1.10;;
16543;SDS011;8384;47.996;7.786;2023-05-10T09:09:04;5.23;;;1.30;;
16543;SDS011;8384;47.996;7.786;2023-05-10T09:11:30;3.37;;;1.20;;
16543;SDS011;8384;47.996;7.786;2023-05-10T09:13:56;2.40;;;1.10;;
16543;SDS011;8384;47.996;7.786;2023-05-10T09:16:21;2.90;;;1.10;;
16543;SDS011;8384;47.996;7.786;2023-05-10T09:18:47;3.17;;;1.10;;
16543;SDS011;8384;47.996;7.786;2023-05-10T09:21:14;2.97;;;1.10;;
16543;SDS011;8384;47.996;7.786;2023-05-10T09:23:42;3.23;;;1.10;;
16543;SDS011;8384;47.996;7.786;2023-05-10T09:26:08;3.33;;;0.90;;
16543;SDS011;8384;47.996;7.786;2023-05-10T09:28:33;2.73;;;1.13;;
16543;SDS011;8384;47.996;7.786;2023-05-10T09:31:14;2.60;;;1.00;;
16543;SDS011;8384;47.996;7.786;2023-05-10T09:33:48;2.27;;;1.03;;
16543;SDS011;8384;47.996;7.786;2023-05-10T09:36:14;2.30;;;0.80;;
16543;SDS011;8384;47.996;7.786;2023-05-10T09:38:47;2.20;;;0.80;;
16543;SDS011;8384;47.996;7.786;2023-05-10T09:41:23;1.85;;;0.75;;
16543;SDS011;8384;47.996;7.786;2023-05-10T09:43:49;3.00;;;0.80;;
16543;SDS011;8384;47.996;7.786;2023-05-10T09:46:14;4.70;;;0.90;;
16543;SDS011;8384;47.996;7.786;2023-05-10T09:48:44;1.45;;;0.70;;
16543;SDS011;8384;47.996;7.786;2023-05-10T09:51:18;3.27;;;0.90;;
16543;SDS011;8384;47.996;7.786;2023-05-10T09:54:09;2.38;;;0.90;;
16543;SDS011;8384;47.996;7.786;2023-05-10T09:56:41;2.28;;;0.80;;
16543;SDS011;8384;47.996;7.786;2023-05-10T09:59:08;2.33;;;0.85;;
16543;SDS011;8384;47.996;7.786;2023-05-10T10:01:35;3.55;;;0.75;;
16543;SDS011;8384;47.996;7.786;2023-05-10T10:04:07;1.80;;;0.70;;
16543;SDS011;8384;47.996;7.786;2023-05-10T10:06:40;2.75;;;0.70;;
16543;SDS011;8384;47.996;7.786;2023-05-10T10:09:06;1.95;;;0.70;;
16543;SDS011;8384;47.996;7.786;2023-05-10T10:11:35;2.50;;;0.70;;
16543;SDS011;8384;47.996;7.786;2023-05-10T10:14:12;1.58;;;0.70;;
16543;SDS011;8384;47.996;7.786;2023-05-10T10:16:37;3.33;;;0.70;;
16543;SDS011;8384;47.996;7.786;2023-05-10T10:19:03;3.33;;;0.80;;
16543;SDS011;8384;47.996;7.786;2023-05-10T10:21:28;1.73;;;0.70;;
16543;SDS011;8384;47.996;7.786;2023-05-10T10:24:03;2.70;;;0.80;;
16543;SDS011;8384;47.996;7.786;2023-05-10T10:26:30;1.83;;;0.60;;
16543;SDS011;8384;47.996;7.786;2023-05-10T10:29:19;2.53;;;0.77;;
16543;SDS011;8384;47.996;7.786;2023-05-10T10:32:20;1.55;;;0.65;;
16543;SDS011;8384;47.996;7.786;2023-05-10T10:35:05;1.85;;;0.60;;
16543;SDS011;8384;47.996;7.786;2023-05-10T10:37:41;2.28;;;0.70;;
16543;SDS011;8384;47.996;7.786;2023-05-10T10:46:13;2.58;;;0.70;;
16543;SDS011;8384;47.996;7.786;2023-05-10T10:48:47;1.35;;;0.63;;
16543;SDS011;8384;47.996;7.786;2023-05-10T10:51:17;1.95;;;0.88;;
16543;SDS011;8384;47.996;7.786;2023-05-10T10:53:42;1.10;;;0.70;;
16543;SDS011;8384;47.996;7.786;2023-05-10T10:56:09;2.70;;;0.68;;
16543;SDS011;8384;47.996;7.786;2023-05-10T10:58:48;2.65;;;0.80;;
16543;SDS011;8384;47.996;7.786;2023-05-10T11:01:32;1.75;;;0.65;;
16543;SDS011;8384;47.996;7.786;2023-05-10T11:06:33;3.08;;;0.90;;
16543;SDS011;8384;47.996;7.786;2023-05-10T11:09:06;2.38;;;0.80;;
16543;SDS011;8384;47.996;7.786;2023-05-10T11:11:34;1.90;;;0.70;;
16543;SDS011;8384;47.996;7.786;2023-05-10T11:14:04;2.60;;;1.00;;
16543;SDS011;8384;47.996;7.786;2023-05-10T11:16:40;2.70;;;1.00;;
16543;SDS011;8384;47.996;7.786;2023-05-10T11:19:07;2.10;;;0.93;;
16543;SDS011;8384;47.996;7.786;2023-05-10T11:21:47;3.05;;;1.00;;
16543;SDS011;8384;47.996;7.786;2023-05-10T11:24:18;2.40;;;1.00;;
16543;SDS011;8384;47.996;7.786;2023-05-10T11:26:44;2.85;;;1.00;;
16543;SDS011;8384;47.996;7.786;2023-05-10T11:29:11;1.83;;;0.93;;
16543;SDS011;8384;47.996;7.786;2023-05-10T11:31:44;2.17;;;0.93;;
16543;SDS011;8384;47.996;7.786;2023-05-10T11:34:31;2.05;;;0.90;;
16543;SDS011;8384;47.996;7.786;2023-05-10T11:36:59;1.92;;;0.95;;
16543;SDS011;8384;47.996;7.786;2023-05-10T11:39:28;3.50;;;1.08;;
16543;SDS011;8384;47.996;7.786;2023-05-10T11:42:05;2.42;;;1.00;;
16543;SDS011;8384;47.996;7.786;2023-05-10T11:44:32;2.67;;;1.00;;
16543;SDS011;8384;47.996;7.786;2023-05-10T11:47:01;2.88;;;0.90;;
16543;SDS011;8384;47.996;7.786;2023-05-10T11:49:30;2.63;;;0.90;;
16543;SDS011;8384;47.996;7.786;2023-05-10T11:54:52;1.80;;;0.70;;
16543;SDS011;8384;47.996;7.786;2023-05-10T11:57:19;1.77;;;0.60;;
16543;SDS011;8384;47.996;7.786;2023-05-10T11:59:56;1.45;;;0.70;;
16543;SDS011;8384;47.996;7.786;2023-05-10T12:02:28;1.92;;;0.70;;
16543;SDS011;8384;47.996;7.786;2023-05-10T12:04:54;1.65;;;0.60;;
16543;SDS011;8384;47.996;7.786;2023-05-10T12:07:21;1.85;;;0.60;;
16543;SDS011;8384;47.996;7.786;2023-05-10T12:12:45;2.45;;;0.60;;
16543;SDS011;8384;47.996;7.786;2023-05-10T12:15:18;1.65;;;0.60;;
16543;SDS011;8384;47.996;7.786;2023-05-10T12:17:50;1.98;;;0.60;;
16543;SDS011;8384;47.996;7.786;2023-05-10T12:20:24;0.93;;;0.60;;
16543;SDS011;8384;47.996;7.786;2023-05-10T12:22:53;2.50;;;0.68;;
16543;SDS011;8384;47.996;7.786;2023-05-10T12:25:35;1.85;;;0.60;;
16543;SDS011;8384;47.996;7.786;2023-05-10T12:28:05;2.03;;;0.90;;
16543;SDS011;8384;47.996;7.786;2023-05-10T12:30:32;1.08;;;0.60;;
16543;SDS011;8384;47.996;7.786;2023-05-10T12:33:00;3.20;;;0.70;;
16543;SDS011;8384;47.996;7.786;2023-05-10T12:40:59;2.65;;;1.10;;
16543;SDS011;8384;47.996;7.786;2023-05-10T12:43:25;2.75;;;0.95;;
16543;SDS011;8384;47.996;7.786;2023-05-10T12:45:51;3.85;;;0.90;;
16543;SDS011;8384;47.996;7.786;2023-05-10T12:48:25;1.30;;;0.73;;
16543;SDS011;8384;47.996;7.786;2023-05-10T12:50:50;2.38;;;0.90;;
16543;SDS011;8384;47.996;7.786;2023-05-10T12:53:16;4.17;;;0.90;;
16543;SDS011;8384;47.996;7.786;2023-05-10T12:55:42;1.65;;;0.60;;
16543;SDS011;8384;47.996;7.786;2023-05-10T12:58:08;1.88;;;0.77;;
16543;SDS011;8384;47.996;7.786;2023-05-10T13:00:36;1.63;;;0.52;;
16543;SDS011;8384;47.996;7.786;2023-05-10T13:03:03;2.67;;;0.50;;
16543;SDS011;8384;47.996;7.786;2023-05-10T13:05:32;2.10;;;0.60;;
16543;SDS011;8384;47.996;7.786;2023-05-10T13:07:57;1.92;;;0.60;;
16543;SDS011;8384;47.996;7.786;2023-05-10T13:13:13;2.30;;;0.60;;
16543;SDS011;8384;47.996;7.786;2023-05-10T13:15:39;2.13;;;0.60;;
16543;SDS011;8384;47.996;7.786;2023-05-10T13:18:07;1.05;;;0.55;;
16543;SDS011;8384;47.996;7.786;2023-05-10T13:20:33;1.25;;;0.52;;
16543;SDS011;8384;47.996;7.786;2023-05-10T13:22:58;1.42;;;0.70;;
16543;SDS011;8384;47.996;7.786;2023-05-10T13:25:29;0.87;;;0.60;;
16543;SDS011;8384;47.996;7.786;2023-05-10T13:27:55;1.00;;;0.52;;
16543;SDS011;8384;47.996;7.786;2023-05-10T13:30:21;0.85;;;0.50;;
16543;SDS011;8384;47.996;7.786;2023-05-10T13:32:46;0.70;;;0.57;;
16543;SDS011;8384;47.996;7.786;2023-05-10T13:35:11;1.10;;;0.50;;
16543;SDS011;8384;47.996;7.786;2023-05-10T13:37:36;1.37;;;0.60;;
16543;SDS011;8384;47.996;7.786;2023-05-10T13:40:02;1.30;;;0.50;;
16543;SDS011;8384;47.996;7.786;2023-05-10T13:42:28;2.50;;;0.68;;
16543;SDS011;8384;47.996;7.786;2023-05-10T13:44:57;0.77;;;0.50;;
16543;SDS011;8384;47.996;7.786;2023-05-10T13:47:22;0.82;;;0.50;;
16543;SDS011;8384;47.996;7.786;2023-05-10T13:49:47;1.05;;;0.60;;
16543;SDS011;8384;47.996;7.786;2023-05-10T13:52:13;0.97;;;0.60;;
16543;SDS011;8384;47.996;7.786;2023-05-10T13:54:38;0.97;;;0.47;;
16543;SDS011;8384;47.996;7.786;2023-05-10T13:57:04;0.90;;;0.50;;
16543;SDS011;8384;47.996;7.786;2023-05-10T13:59:36;0.40;;;0.27;;
16543;SDS011;8384;47.996;7.786;2023-05-10T14:02:07;0.35;;;0.25;;
16543;SDS011;8384;47.996;7.786;2023-05-10T14:04:35;0.75;;;0.30;;
16543;SDS011;8384;47.996;7.786;2023-05-10T14:07:01;0.63;;;0.30;;
16543;SDS011;8384;47.996;7.786;2023-05-10T14:09:32;0.98;;;0.43;;
16543;SDS011;8384;47.996;7.786;2023-05-10T14:11:58;1.15;;;0.40;;
16543;SDS011;8384;47.996;7.786;2023-05-10T14:14:29;1.15;;;0.30;;
16543;SDS011;8384;47.996;7.786;2023-05-10T14:16:55;0.40;;;0.30;;
16543;SDS011;8384;47.996;7.786;2023-05-10T14:19:32;1.37;;;0.30;;
16543;SDS011;8384;47.996;7.786;2023-05-10T14:21:59;1.13;;;0.30;;
16543;SDS011;8384;47.996;7.786;2023-05-10T14:24:24;0.88;;;0.30;;
16543;SDS011;8384;47.996;7.786;2023-05-10T14:26:50;1.38;;;0.40;;
16543;SDS011;8384;47.996;7.786;2023-05-10T14:29:18;0.43;;;0.28;;
16543;SDS011;8384;47.996;7.786;2023-05-10T14:31:47;0.40;;;0.35;;
16543;SDS011;8384;47.996;7.786;2023-05-10T14:34:12;0.75;;;0.30;;
16543;SDS011;8384;47.996;7.786;2023-05-10T14:36:38;1.17;;;0.40;;
16543;SDS011;8384;47.996;7.786;2023-05-10T14:39:06;0.80;;;0.50;;
16543;SDS011;8384;47.996;7.786;2023-05-10T14:41:38;0.40;;;0.40;;
16543;SDS011;8384;47.996;7.786;2023-05-10T14:44:12;1.17;;;0.40;;
16543;SDS011;8384;47.996;7.786;2023-05-10T14:46:38;0.93;;;0.60;;
16543;SDS011;8384;47.996;7.786;2023-05-10T14:49:04;1.23;;;0.40;;
16543;SDS011;8384;47.996;7.786;2023-05-10T14:51:38;1.38;;;0.47;;
16543;SDS011;8384;47.996;7.786;2023-05-10T14:54:06;1.52;;;0.50;;
16543;SDS011;8384;47.996;7.786;2023-05-10T14:56:31;1.10;;;0.50;;
16543;SDS011;8384;47.996;7.786;2023-05-10T14:58:57;0.98;;;0.60;;
16543;SDS011;8384;47.996;7.786;2023-05-10T15:01:25;1.53;;;0.40;;
16543;SDS011;8384;47.996;7.786;2023-05-10T15:03:53;0.90;;;0.40;;
16543;SDS011;8384;47.996;7.786;2023-05-10T15:06:30;0.90;;;0.40;;
16543;SDS011;8384;47.996;7.786;2023-05-10T15:08:56;0.77;;;0.40;;
16543;SDS011;8384;47.996;7.786;2023-05-10T15:11:21;0.50;;;0.40;;
16543;SDS011;8384;47.996;7.786;2023-05-10T15:13:47;1.33;;;0.40;;
16543;SDS011;8384;47.996;7.786;2023-05-10T15:16:12;0.80;;;0.40;;
16543;SDS011;8384;47.996;7.786;2023-05-10T15:18:37;0.90;;;0.40;;
16543;SDS011;8384;47.996;7.786;2023-05-10T15:23:34;1.77;;;0.40;;
16543;SDS011;8384;47.996;7.786;2023-05-10T15:26:05;1.33;;;0.55;;
16543;SDS011;8384;47.996;7.786;2023-05-10T15:28:33;1.25;;;0.50;;
16543;SDS011;8384;47.996;7.786;2023-05-10T15:30:59;1.10;;;0.40;;
16543;SDS011;8384;47.996;7.786;2023-05-10T15:33:25;1.00;;;0.40;;
16543;SDS011;8384;47.996;7.786;2023-05-10T15:36:10;1.00;;;0.40;;
16543;SDS011;8384;47.996;7.786;2023-05-10T15:38:35;1.77;;;0.50;;
16543;SDS011;8384;47.996;7.786;2023-05-10T15:41:12;1.50;;;0.50;;